Weather at Brownsville South Padre Island International Airport

Public forecast

Using degrees Fahrenheit for public forecast. Weather courtesy of forecast.io.

Current aviation weather report (METAR) for Brownsville South Padre Island International Airport

Retrieved 2020/09/29 22:53 UTC (23 minutes ago):

KBRO 292253Z 02009KT 10SM CLR 26/09 A3012 RMK AO2 SLP199 T02560089

Aviation forecast (TAF) for Brownsville South Padre Island International Airport

Retrieved 2020/09/29 18:30 UTC (5 hours ago):

TAF KBRO 291727Z 2918/3018 01015G22KT P6SM SKC FM292200 02012KT P6SM SKC FM300000 04008KT P6SM SKC FM300300 00000KT P6SM SKC FM301500 25006KT P6SM SKC